Lebam, Washington
Current Conditions -  °F | °C
As of 10:55 AM on Wednesday 26 Nov 2014 (Local Time) from KCLS Reporting Station
Broken Clouds Broken Clouds  
Wind Chill: 59°   Ceiling: 4700
Heat Index: 59°   Visibility: 10mi
Dew Point: 55°   Wind: 8mph
Humidity: 88%   Direction: 190°S
Pressure: 30.13"   Gusts: 15mph
Location:  46.56°N, 123.55°W
Report Text: KCLS 261855Z AUTO 19007G13KT 10SM BKN047 15/13 A3013 RMK AO2
Loading
Personal Weather Stations






























Interactive Weather Map New forecast layout! Learn more

10-Day Weather Forecast

Advertisements
Track Severe Weather on mobile